This is the latest recevied weather packets stored in our database for station/object DO1BDB-12. If no packets are shown the sender has not sent any weather packets the latest 10 day(s).
| Time | Temp. | Humidity | Pressure | Rain* | Wind** | Luminosity | Snow |
|---|---|---|---|---|---|---|---|
| 1778312912 | 21.11° C | 41% | 102.2 hPa | - | - | - | - |
| 1778312847 | 18.33° C | 42% | 102.2 hPa | - | - | - | - |
| 1778312780 | 24.44° C | 32% | 102.2 hPa | - | - | - | - |
| 1778312715 | 26.11° C | 33% | 102.2 hPa | - | - | - | - |
| 1778312649 | 22.22° C | 35% | 102.2 hPa | - | - | - | - |
| 1778312583 | 26.11° C | 32% | 102.2 hPa | - | - | - | - |
| 1778312517 | 25° C | 33% | 102.2 hPa | - | - | - | - |
| 1778312451 | 24.44° C | 36% | 102.2 hPa | - | - | - | - |
| 1778312385 | 18.33° C | 44% | 102.2 hPa | - | - | - | - |
| 1778312320 | 18.89° C | 43% | 102.3 hPa | - | - | - | - |
| 1778312254 | 21.67° C | 38% | 102.2 hPa | - | - | - | - |
| 1778312188 | 25° C | 33% | 102.2 hPa | - | - | - | - |
| 1778312122 | 24.44° C | 33% | 102.2 hPa | - | - | - | - |
| 1778312056 | 26.11° C | 33% | 102.2 hPa | - | - | - | - |
| 1778311990 | 23.33° C | 38% | 102.2 hPa | - | - | - | - |
| 1778311924 | 18.33° C | 47% | 102.3 hPa | - | - | - | - |
| 1778311859 | 21.11° C | 36% | 102.3 hPa | - | - | - | - |
| 1778311793 | 25.56° C | 34% | 102.2 hPa | - | - | - | - |
| 1778311727 | 22.78° C | 36% | 102.2 hPa | - | - | - | - |
| 1778311661 | 21.67° C | 35% | 102.3 hPa | - | - | - | - |
| 1778311595 | 25° C | 33% | 102.2 hPa | - | - | - | - |
| 1778311529 | 24.44° C | 35% | 102.2 hPa | - | - | - | - |
| 1778311464 | 23.89° C | 34% | 102.3 hPa | - | - | - | - |
| 1778311398 | 25.56° C | 32% | 102.2 hPa | - | - | - | - |
| 1778311332 | 26.67° C | 31% | 102.2 hPa | - | - | - | - |
* Rain since midnight (hover to see other rain measurements)
** Current wind speed in m/s (hover to see current wind gust speed)